sensor_id;sensor_type;location;lat;lon;timestamp;pressure;altitude;pressure_sealevel;temperature;humidity
23679;BME280;12016;51.668;6.874;2023-01-24T00:05:50;103038.69;;;2.29;66.97
23679;BME280;12016;51.668;6.874;2023-01-24T00:11:52;103546.91;;;5.46;67.58
23679;BME280;12016;51.668;6.874;2023-01-24T00:17:54;103409.81;;;4.61;66.73
23679;BME280;12016;51.668;6.874;2023-01-24T00:23:55;103183.56;;;3.13;67.31
23679;BME280;12016;51.668;6.874;2023-01-24T00:29:57;103377.38;;;4.12;66.70
23679;BME280;12016;51.668;6.874;2023-01-24T00:35:59;103509.78;;;5.18;66.84
23679;BME280;12016;51.668;6.874;2023-01-24T00:42:01;103060.19;;;2.40;66.86
23679;BME280;12016;51.668;6.874;2023-01-24T00:48:04;103532.34;;;5.35;66.99
23679;BME280;12016;51.668;6.874;2023-01-24T00:54:07;103566.66;;;5.38;67.05
23679;BME280;12016;51.668;6.874;2023-01-24T01:00:09;103333.69;;;4.13;67.06
23679;BME280;12016;51.668;6.874;2023-01-24T01:06:15;103226.19;;;3.40;66.71
23679;BME280;12016;51.668;6.874;2023-01-24T01:12:17;103277.69;;;3.60;67.06
23679;BME280;12016;51.668;6.874;2023-01-24T01:18:20;103023.66;;;2.08;67.31
23679;BME280;12016;51.668;6.874;2023-01-24T01:24:21;103230.91;;;3.31;67.36
23679;BME280;12016;51.668;6.874;2023-01-24T01:30:23;103427.88;;;4.33;67.07
23679;BME280;12016;51.668;6.874;2023-01-24T01:36:25;103440.78;;;4.56;67.02
23679;BME280;12016;51.668;6.874;2023-01-24T01:42:39;103522.94;;;5.00;67.65
23679;BME280;12016;51.668;6.874;2023-01-24T01:48:44;103551.28;;;5.27;67.58
23679;BME280;12016;51.668;6.874;2023-01-24T01:54:47;103548.19;;;5.24;67.50
23679;BME280;12016;51.668;6.874;2023-01-24T02:00:51;103541.00;;;5.24;67.66
23679;BME280;12016;51.668;6.874;2023-01-24T02:07:06;103537.69;;;5.22;68.28
23679;BME280;12016;51.668;6.874;2023-01-24T02:13:09;103530.72;;;5.21;67.49
23679;BME280;12016;51.668;6.874;2023-01-24T02:25:45;103535.47;;;5.19;67.42
23679;BME280;12016;51.668;6.874;2023-01-24T02:31:58;103532.34;;;5.22;68.04
23679;BME280;12016;51.668;6.874;2023-01-24T02:38:04;103540.38;;;5.22;67.24
23679;BME280;12016;51.668;6.874;2023-01-24T02:44:12;103452.09;;;4.51;67.33
23679;BME280;12016;51.668;6.874;2023-01-24T02:50:16;103527.44;;;5.19;66.99
23679;BME280;12016;51.668;6.874;2023-01-24T02:56:18;103528.06;;;5.15;66.92
23679;BME280;12016;51.668;6.874;2023-01-24T03:02:38;103275.81;;;3.67;66.93
23679;BME280;12016;51.668;6.874;2023-01-24T03:08:41;103429.91;;;4.71;66.98
23679;BME280;12016;51.668;6.874;2023-01-24T03:14:52;103279.53;;;3.79;66.86
23679;BME280;12016;51.668;6.874;2023-01-24T03:21:12;103515.28;;;5.23;67.03
23679;BME280;12016;51.668;6.874;2023-01-24T03:27:33;103282.41;;;3.84;67.37
23679;BME280;12016;51.668;6.874;2023-01-24T03:33:59;103404.69;;;4.53;67.53
23679;BME280;12016;51.668;6.874;2023-01-24T03:40:20;103511.59;;;5.24;66.86
23679;BME280;12016;51.668;6.874;2023-01-24T03:46:22;103504.22;;;5.07;67.21
23679;BME280;12016;51.668;6.874;2023-01-24T03:52:25;103147.91;;;3.01;67.42
23679;BME280;12016;51.668;6.874;2023-01-24T03:58:34;103508.94;;;5.24;66.67
23679;BME280;12016;51.668;6.874;2023-01-24T04:04:40;103405.91;;;4.57;67.25
23679;BME280;12016;51.668;6.874;2023-01-24T04:11:01;103516.34;;;5.16;66.58
23679;BME280;12016;51.668;6.874;2023-01-24T04:17:04;103515.31;;;5.17;67.26
23679;BME280;12016;51.668;6.874;2023-01-24T04:23:14;103504.81;;;5.22;67.09
23679;BME280;12016;51.668;6.874;2023-01-24T04:29:16;103512.44;;;5.18;66.85
23679;BME280;12016;51.668;6.874;2023-01-24T04:35:24;103370.41;;;4.24;66.71
23679;BME280;12016;51.668;6.874;2023-01-24T04:41:29;103509.38;;;4.95;66.25
23679;BME280;12016;51.668;6.874;2023-01-24T04:47:32;103512.84;;;5.15;66.56
23679;BME280;12016;51.668;6.874;2023-01-24T04:53:38;103509.16;;;5.10;66.59
23679;BME280;12016;51.668;6.874;2023-01-24T04:59:40;103309.47;;;3.75;66.65
23679;BME280;12016;51.668;6.874;2023-01-24T05:05:49;103033.91;;;2.04;66.19
23679;BME280;12016;51.668;6.874;2023-01-24T05:11:52;103523.75;;;5.07;66.77
23679;BME280;12016;51.668;6.874;2023-01-24T05:17:54;103443.88;;;4.59;66.78
23679;BME280;12016;51.668;6.874;2023-01-24T05:23:58;103529.91;;;5.08;66.73
23679;BME280;12016;51.668;6.874;2023-01-24T05:30:00;103536.06;;;5.08;65.94
23679;BME280;12016;51.668;6.874;2023-01-24T05:36:10;103534.00;;;5.10;66.58
23679;BME280;12016;51.668;6.874;2023-01-24T05:42:12;103538.75;;;5.08;66.20
23679;BME280;12016;51.668;6.874;2023-01-24T05:48:18;103541.03;;;5.05;66.23
23679;BME280;12016;51.668;6.874;2023-01-24T05:54:23;103317.25;;;3.63;65.82
23679;BME280;12016;51.668;6.874;2023-01-24T06:00:36;103585.63;;;5.04;66.09
23679;BME280;12016;51.668;6.874;2023-01-24T06:07:13;103369.34;;;3.92;66.34
23679;BME280;12016;51.668;6.874;2023-01-24T06:13:16;103565.66;;;5.07;66.28
23679;BME280;12016;51.668;6.874;2023-01-24T06:19:18;103234.53;;;2.97;66.16
23679;BME280;12016;51.668;6.874;2023-01-24T06:25:23;103583.94;;;5.10;66.75
23679;BME280;12016;51.668;6.874;2023-01-24T06:37:46;103589.94;;;5.05;65.98
23679;BME280;12016;51.668;6.874;2023-01-24T06:43:49;103502.19;;;4.49;66.07
23679;BME280;12016;51.668;6.874;2023-01-24T06:49:50;103516.78;;;4.60;65.81
23679;BME280;12016;51.668;6.874;2023-01-24T06:55:52;103561.56;;;4.78;65.75
23679;BME280;12016;51.668;6.874;2023-01-24T07:01:54;103597.72;;;4.93;65.56
23679;BME280;12016;51.668;6.874;2023-01-24T07:07:56;103597.31;;;4.96;66.06
23679;BME280;12016;51.668;6.874;2023-01-24T07:13:58;103636.16;;;4.92;65.43
23679;BME280;12016;51.668;6.874;2023-01-24T07:20:00;103616.63;;;4.98;65.51
23679;BME280;12016;51.668;6.874;2023-01-24T07:26:02;103630.38;;;4.89;65.50
23679;BME280;12016;51.668;6.874;2023-01-24T07:32:05;103608.59;;;4.79;65.53
23679;BME280;12016;51.668;6.874;2023-01-24T07:38:07;103553.03;;;4.21;65.38
23679;BME280;12016;51.668;6.874;2023-01-24T07:44:09;103668.38;;;4.84;65.87
23679;BME280;12016;51.668;6.874;2023-01-24T07:50:11;103127.88;;;1.90;65.39
23679;BME280;12016;51.668;6.874;2023-01-24T07:56:13;103632.69;;;5.05;66.22
23679;BME280;12016;51.668;6.874;2023-01-24T08:02:25;102824.38;;;-0.11;65.02
23679;BME280;12016;51.668;6.874;2023-01-24T08:08:27;102975.34;;;0.75;64.95
23679;BME280;12016;51.668;6.874;2023-01-24T08:14:29;103568.31;;;4.54;64.82
23679;BME280;12016;51.668;6.874;2023-01-24T08:20:30;103654.44;;;5.02;64.97
23679;BME280;12016;51.668;6.874;2023-01-24T08:26:33;103058.25;;;1.32;64.67
23679;BME280;12016;51.668;6.874;2023-01-24T08:32:34;103575.69;;;4.58;64.73
23679;BME280;12016;51.668;6.874;2023-01-24T08:38:36;103487.53;;;4.06;64.40
23679;BME280;12016;51.668;6.874;2023-01-24T08:44:38;103665.97;;;5.16;64.24
23679;BME280;12016;51.668;6.874;2023-01-24T08:50:40;103702.16;;;5.18;64.49
23679;BME280;12016;51.668;6.874;2023-01-24T08:56:44;103587.81;;;4.67;63.99
23679;BME280;12016;51.668;6.874;2023-01-24T09:02:46;103574.69;;;4.66;63.94
23679;BME280;12016;51.668;6.874;2023-01-24T09:08:51;103640.06;;;5.10;63.60
23679;BME280;12016;51.668;6.874;2023-01-24T09:14:53;103681.34;;;5.07;63.66
23679;BME280;12016;51.668;6.874;2023-01-24T09:20:59;103475.81;;;3.93;63.23
23679;BME280;12016;51.668;6.874;2023-01-24T09:27:01;103481.84;;;4.22;62.95
23679;BME280;12016;51.668;6.874;2023-01-24T09:33:06;103694.75;;;5.47;62.89
23679;BME280;12016;51.668;6.874;2023-01-24T09:39:08;103373.38;;;3.55;62.09
23679;BME280;12016;51.668;6.874;2023-01-24T09:45:18;103517.59;;;4.47;62.42
23679;BME280;12016;51.668;6.874;2023-01-24T09:51:26;103689.81;;;5.70;62.96
23679;BME280;12016;51.668;6.874;2023-01-24T09:57:53;103453.72;;;4.26;62.67
23679;BME280;12016;51.668;6.874;2023-01-24T10:03:57;103702.16;;;5.84;62.38
23679;BME280;12016;51.668;6.874;2023-01-24T10:28:52;103706.25;;;6.00;62.26
23679;BME280;12016;51.668;6.874;2023-01-24T10:34:59;103698.44;;;5.98;61.37
23679;BME280;12016;51.668;6.874;2023-01-24T10:41:14;103694.72;;;6.06;61.81
23679;BME280;12016;51.668;6.874;2023-01-24T10:53:30;103407.94;;;4.42;61.31
23679;BME280;12016;51.668;6.874;2023-01-24T10:59:32;103380.06;;;4.38;61.68
23679;BME280;12016;51.668;6.874;2023-01-24T11:05:49;103575.41;;;5.79;61.92
23679;BME280;12016;51.668;6.874;2023-01-24T11:11:54;103562.50;;;5.69;61.20
23679;BME280;12016;51.668;6.874;2023-01-24T11:17:58;103670.91;;;6.49;60.80
23679;BME280;12016;51.668;6.874;2023-01-24T11:24:12;103672.75;;;6.49;61.00
23679;BME280;12016;51.668;6.874;2023-01-24T11:30:20;103661.66;;;6.45;61.03
23679;BME280;12016;51.668;6.874;2023-01-24T11:43:02;103678.69;;;6.51;61.34
23679;BME280;12016;51.668;6.874;2023-01-24T11:55:26;103640.09;;;6.65;60.92
23679;BME280;12016;51.668;6.874;2023-01-24T12:01:48;103140.56;;;3.49;60.59
23679;BME280;12016;51.668;6.874;2023-01-24T12:27:06;103279.94;;;4.87;61.16
23679;BME280;12016;51.668;6.874;2023-01-24T12:33:20;103273.16;;;4.91;60.10
23679;BME280;12016;51.668;6.874;2023-01-24T12:39:30;103350.38;;;5.44;61.50
23679;BME280;12016;51.668;6.874;2023-01-24T12:52:01;103577.13;;;6.87;60.61
23679;BME280;12016;51.668;6.874;2023-01-24T12:58:31;103583.53;;;6.86;60.40
23679;BME280;12016;51.668;6.874;2023-01-24T13:04:41;103568.09;;;6.81;60.67
23679;BME280;12016;51.668;6.874;2023-01-24T13:17:22;103563.94;;;6.86;60.34
23679;BME280;12016;51.668;6.874;2023-01-24T13:24:24;103320.09;;;5.50;61.06
23679;BME280;12016;51.668;6.874;2023-01-24T13:36:35;103549.53;;;6.87;60.10
23679;BME280;12016;51.668;6.874;2023-01-24T13:42:38;103566.44;;;6.80;60.83
23679;BME280;12016;51.668;6.874;2023-01-24T13:54:42;103564.50;;;6.63;60.98
23679;BME280;12016;51.668;6.874;2023-01-24T14:00:47;103583.50;;;6.61;61.24
23679;BME280;12016;51.668;6.874;2023-01-24T14:06:51;103566.63;;;6.54;61.32
23679;BME280;12016;51.668;6.874;2023-01-24T14:12:54;103566.03;;;6.52;61.16
23679;BME280;12016;51.668;6.874;2023-01-24T14:25:31;103580.16;;;6.34;60.14
23679;BME280;12016;51.668;6.874;2023-01-24T14:31:38;103376.09;;;4.80;61.10
23679;BME280;12016;51.668;6.874;2023-01-24T14:37:41;103581.31;;;6.00;60.60
23679;BME280;12016;51.668;6.874;2023-01-24T14:43:43;103538.34;;;5.95;61.08
23679;BME280;12016;51.668;6.874;2023-01-24T14:49:47;103385.09;;;4.92;61.10
23679;BME280;12016;51.668;6.874;2023-01-24T14:55:52;103594.69;;;6.07;61.42
23679;BME280;12016;51.668;6.874;2023-01-24T15:01:54;103632.34;;;6.05;61.22
23679;BME280;12016;51.668;6.874;2023-01-24T15:07:57;103156.94;;;3.33;61.20
23679;BME280;12016;51.668;6.874;2023-01-24T15:14:03;103579.69;;;5.99;61.70
23679;BME280;12016;51.668;6.874;2023-01-24T15:20:09;103476.44;;;5.27;61.98
23679;BME280;12016;51.668;6.874;2023-01-24T15:26:34;103616.16;;;5.74;61.34
23679;BME280;12016;51.668;6.874;2023-01-24T15:38:47;103590.28;;;5.55;61.83
23679;BME280;12016;51.668;6.874;2023-01-24T15:44:54;103344.13;;;4.21;62.43
23679;BME280;12016;51.668;6.874;2023-01-24T15:50:56;103289.78;;;3.82;61.98
23679;BME280;12016;51.668;6.874;2023-01-24T15:57:21;103589.25;;;5.49;62.46
23679;BME280;12016;51.668;6.874;2023-01-24T16:03:23;103590.09;;;5.50;62.82
23679;BME280;12016;51.668;6.874;2023-01-24T16:09:25;103054.81;;;2.21;62.64
23679;BME280;12016;51.668;6.874;2023-01-24T16:15:27;103522.53;;;5.03;62.68
23679;BME280;12016;51.668;6.874;2023-01-24T16:21:28;103155.81;;;2.68;62.74
23679;BME280;12016;51.668;6.874;2023-01-24T16:27:31;103584.97;;;5.35;62.97
23679;BME280;12016;51.668;6.874;2023-01-24T16:33:34;103589.09;;;5.31;62.96
23679;BME280;12016;51.668;6.874;2023-01-24T16:39:35;103588.28;;;5.30;62.97
23679;BME280;12016;51.668;6.874;2023-01-24T16:45:37;103505.06;;;4.81;63.01
23679;BME280;12016;51.668;6.874;2023-01-24T16:51:39;103525.41;;;4.88;63.48
23679;BME280;12016;51.668;6.874;2023-01-24T16:57:41;103497.28;;;4.66;63.15
23679;BME280;12016;51.668;6.874;2023-01-24T17:03:43;103310.06;;;3.50;63.15
23679;BME280;12016;51.668;6.874;2023-01-24T17:09:45;103513.69;;;4.70;63.32
23679;BME280;12016;51.668;6.874;2023-01-24T17:15:47;103583.97;;;5.03;63.25
23679;BME280;12016;51.668;6.874;2023-01-24T17:21:49;103511.44;;;4.60;63.26
23679;BME280;12016;51.668;6.874;2023-01-24T17:27:53;103586.22;;;4.80;63.44
23679;BME280;12016;51.668;6.874;2023-01-24T17:33:55;103278.19;;;3.16;63.26
23679;BME280;12016;51.668;6.874;2023-01-24T17:39:57;103261.13;;;2.91;63.74
23679;BME280;12016;51.668;6.874;2023-01-24T17:46:00;103596.47;;;4.96;63.30
23679;BME280;12016;51.668;6.874;2023-01-24T17:52:01;103503.19;;;4.42;63.35
23679;BME280;12016;51.668;6.874;2023-01-24T17:58:03;103477.94;;;4.24;63.56
23679;BME280;12016;51.668;6.874;2023-01-24T18:04:05;103573.47;;;4.88;63.40
23679;BME280;12016;51.668;6.874;2023-01-24T18:10:08;103513.88;;;4.48;63.28
23679;BME280;12016;51.668;6.874;2023-01-24T18:16:13;103578.81;;;4.82;63.18
23679;BME280;12016;51.668;6.874;2023-01-24T18:22:15;103598.94;;;4.84;63.80
23679;BME280;12016;51.668;6.874;2023-01-24T18:28:17;103579.03;;;4.80;63.42
23679;BME280;12016;51.668;6.874;2023-01-24T18:34:19;103577.97;;;4.81;63.85
23679;BME280;12016;51.668;6.874;2023-01-24T18:40:21;103567.72;;;4.72;63.72
23679;BME280;12016;51.668;6.874;2023-01-24T18:46:23;103508.97;;;4.39;63.87
23679;BME280;12016;51.668;6.874;2023-01-24T18:52:24;103282.13;;;2.38;63.78
23679;BME280;12016;51.668;6.874;2023-01-24T18:58:26;103589.94;;;4.92;63.96
23679;BME280;12016;51.668;6.874;2023-01-24T19:04:29;103578.81;;;4.88;63.70
23679;BME280;12016;51.668;6.874;2023-01-24T19:10:30;103305.66;;;3.16;63.85
23679;BME280;12016;51.668;6.874;2023-01-24T19:16:34;103411.97;;;3.72;63.68
23679;BME280;12016;51.668;6.874;2023-01-24T19:22:37;103306.41;;;3.04;63.84
23679;BME280;12016;51.668;6.874;2023-01-24T19:28:39;103583.56;;;4.80;63.84
23679;BME280;12016;51.668;6.874;2023-01-24T19:34:41;103352.56;;;3.17;63.86
23679;BME280;12016;51.668;6.874;2023-01-24T19:40:44;103587.44;;;4.84;64.21
23679;BME280;12016;51.668;6.874;2023-01-24T19:46:47;103613.13;;;4.85;64.11
23679;BME280;12016;51.668;6.874;2023-01-24T19:52:50;103233.56;;;2.64;63.50
23679;BME280;12016;51.668;6.874;2023-01-24T19:58:55;103616.81;;;4.84;63.86
23679;BME280;12016;51.668;6.874;2023-01-24T20:04:57;103205.88;;;2.45;63.25
23679;BME280;12016;51.668;6.874;2023-01-24T20:10:59;103064.44;;;1.39;63.77
23679;BME280;12016;51.668;6.874;2023-01-24T20:17:03;103605.94;;;4.85;64.30
23679;BME280;12016;51.668;6.874;2023-01-24T20:23:05;103219.81;;;1.85;64.53
23679;BME280;12016;51.668;6.874;2023-01-24T20:29:08;103261.00;;;2.58;63.89
23679;BME280;12016;51.668;6.874;2023-01-24T20:35:12;103334.78;;;3.25;63.97
23679;BME280;12016;51.668;6.874;2023-01-24T20:41:16;103622.97;;;4.78;63.69
23679;BME280;12016;51.668;6.874;2023-01-24T20:47:18;103365.09;;;3.23;63.78
23679;BME280;12016;51.668;6.874;2023-01-24T20:53:20;103408.41;;;2.98;63.48
23679;BME280;12016;51.668;6.874;2023-01-24T20:59:22;103300.00;;;2.44;63.84
23679;BME280;12016;51.668;6.874;2023-01-24T21:05:24;103149.19;;;1.69;64.16
23679;BME280;12016;51.668;6.874;2023-01-24T21:11:27;103290.88;;;2.60;64.26
23679;BME280;12016;51.668;6.874;2023-01-24T21:17:29;103075.41;;;1.30;64.04
23679;BME280;12016;51.668;6.874;2023-01-24T21:23:32;103587.59;;;4.56;64.48
23679;BME280;12016;51.668;6.874;2023-01-24T21:29:33;103251.69;;;2.47;63.53
23679;BME280;12016;51.668;6.874;2023-01-24T21:35:35;103494.03;;;3.90;64.05
23679;BME280;12016;51.668;6.874;2023-01-24T21:41:37;103559.44;;;4.27;63.74
23679;BME280;12016;51.668;6.874;2023-01-24T21:47:58;103576.28;;;4.41;63.84
23679;BME280;12016;51.668;6.874;2023-01-24T21:53:59;103288.22;;;2.60;64.47
23679;BME280;12016;51.668;6.874;2023-01-24T22:00:07;103628.22;;;4.38;63.89
23679;BME280;12016;51.668;6.874;2023-01-24T22:06:13;103307.13;;;2.78;63.82
23679;BME280;12016;51.668;6.874;2023-01-24T22:12:14;103441.44;;;3.57;64.22
23679;BME280;12016;51.668;6.874;2023-01-24T22:18:16;103561.94;;;4.48;63.66
23679;BME280;12016;51.668;6.874;2023-01-24T22:31:05;103589.63;;;4.47;64.01
23679;BME280;12016;51.668;6.874;2023-01-24T22:43:09;103543.72;;;4.04;63.75
23679;BME280;12016;51.668;6.874;2023-01-24T22:49:11;102673.28;;;-1.37;63.40
23679;BME280;12016;51.668;6.874;2023-01-24T22:55:12;103178.66;;;2.02;64.33
23679;BME280;12016;51.668;6.874;2023-01-24T23:01:16;103571.75;;;4.28;63.69
23679;BME280;12016;51.668;6.874;2023-01-24T23:07:20;103459.97;;;3.79;63.48
23679;BME280;12016;51.668;6.874;2023-01-24T23:13:23;103546.47;;;4.30;63.98
23679;BME280;12016;51.668;6.874;2023-01-24T23:19:45;103535.63;;;4.32;63.54
23679;BME280;12016;51.668;6.874;2023-01-24T23:26:06;103524.13;;;4.31;64.38
23679;BME280;12016;51.668;6.874;2023-01-24T23:32:20;103522.47;;;4.24;64.12
23679;BME280;12016;51.668;6.874;2023-01-24T23:38:23;103515.91;;;4.26;62.84
23679;BME280;12016;51.668;6.874;2023-01-24T23:44:26;103448.31;;;3.86;63.58
23679;BME280;12016;51.668;6.874;2023-01-24T23:50:28;103499.09;;;4.26;63.68
23679;BME280;12016;51.668;6.874;2023-01-24T23:56:30;103359.19;;;3.35;63.96
